sensor_id;sensor_type;location;lat;lon;timestamp;P1;durP1;ratioP1;P2;durP2;ratioP2
57826;SDS011;43656;57.746;11.780;2022-12-18T00:00:30;68.53;;;26.08;;
57826;SDS011;43656;57.746;11.780;2022-12-18T00:02:56;52.70;;;21.38;;
57826;SDS011;43656;57.746;11.780;2022-12-18T00:05:21;70.25;;;26.20;;
57826;SDS011;43656;57.746;11.780;2022-12-18T00:07:46;71.80;;;26.95;;
57826;SDS011;43656;57.746;11.780;2022-12-18T00:10:12;61.30;;;23.88;;
57826;SDS011;43656;57.746;11.780;2022-12-18T00:12:37;67.85;;;26.15;;
57826;SDS011;43656;57.746;11.780;2022-12-18T00:15:03;70.60;;;27.50;;
57826;SDS011;43656;57.746;11.780;2022-12-18T00:17:28;65.45;;;23.00;;
57826;SDS011;43656;57.746;11.780;2022-12-18T00:19:54;71.03;;;27.73;;
57826;SDS011;43656;57.746;11.780;2022-12-18T00:22:19;79.97;;;28.88;;
57826;SDS011;43656;57.746;11.780;2022-12-18T00:24:45;79.53;;;28.33;;
57826;SDS011;43656;57.746;11.780;2022-12-18T00:27:10;77.38;;;29.23;;
57826;SDS011;43656;57.746;11.780;2022-12-18T00:29:35;74.13;;;26.45;;
57826;SDS011;43656;57.746;11.780;2022-12-18T00:32:01;77.32;;;28.27;;
57826;SDS011;43656;57.746;11.780;2022-12-18T00:34:26;75.82;;;28.27;;
57826;SDS011;43656;57.746;11.780;2022-12-18T00:36:52;74.47;;;26.98;;
57826;SDS011;43656;57.746;11.780;2022-12-18T00:39:17;64.38;;;25.27;;
57826;SDS011;43656;57.746;11.780;2022-12-18T00:41:43;70.55;;;26.73;;
57826;SDS011;43656;57.746;11.780;2022-12-18T00:44:27;67.97;;;26.83;;
57826;SDS011;43656;57.746;11.780;2022-12-18T00:46:52;70.38;;;26.48;;
57826;SDS011;43656;57.746;11.780;2022-12-18T00:49:18;78.35;;;29.27;;
57826;SDS011;43656;57.746;11.780;2022-12-18T00:51:45;75.38;;;27.85;;
57826;SDS011;43656;57.746;11.780;2022-12-18T00:54:10;77.47;;;26.90;;
57826;SDS011;43656;57.746;11.780;2022-12-18T00:56:37;78.38;;;29.20;;
57826;SDS011;43656;57.746;11.780;2022-12-18T00:59:03;79.18;;;27.50;;
57826;SDS011;43656;57.746;11.780;2022-12-18T01:01:29;76.30;;;28.95;;
57826;SDS011;43656;57.746;11.780;2022-12-18T01:03:59;76.70;;;26.20;;
57826;SDS011;43656;57.746;11.780;2022-12-18T01:06:25;85.65;;;29.20;;
57826;SDS011;43656;57.746;11.780;2022-12-18T01:08:50;65.10;;;25.33;;
57826;SDS011;43656;57.746;11.780;2022-12-18T01:11:17;74.28;;;29.20;;
57826;SDS011;43656;57.746;11.780;2022-12-18T01:13:44;81.13;;;28.23;;
57826;SDS011;43656;57.746;11.780;2022-12-18T01:16:13;90.53;;;30.10;;
57826;SDS011;43656;57.746;11.780;2022-12-18T01:18:39;81.72;;;27.92;;
57826;SDS011;43656;57.746;11.780;2022-12-18T01:21:06;78.85;;;28.55;;
57826;SDS011;43656;57.746;11.780;2022-12-18T01:23:36;71.38;;;26.75;;
57826;SDS011;43656;57.746;11.780;2022-12-18T01:26:06;80.75;;;29.35;;
57826;SDS011;43656;57.746;11.780;2022-12-18T01:28:33;71.82;;;28.33;;
57826;SDS011;43656;57.746;11.780;2022-12-18T01:31:09;85.55;;;28.38;;
57826;SDS011;43656;57.746;11.780;2022-12-18T01:33:37;85.97;;;29.40;;
57826;SDS011;43656;57.746;11.780;2022-12-18T01:36:02;82.43;;;28.75;;
57826;SDS011;43656;57.746;11.780;2022-12-18T01:38:28;76.30;;;27.23;;
57826;SDS011;43656;57.746;11.780;2022-12-18T01:40:58;82.30;;;27.05;;
57826;SDS011;43656;57.746;11.780;2022-12-18T01:46:17;77.65;;;26.60;;
57826;SDS011;43656;57.746;11.780;2022-12-18T01:48:44;72.97;;;26.60;;
57826;SDS011;43656;57.746;11.780;2022-12-18T01:51:12;45.92;;;17.42;;
57826;SDS011;43656;57.746;11.780;2022-12-18T01:53:39;69.68;;;23.25;;
57826;SDS011;43656;57.746;11.780;2022-12-18T01:56:06;71.97;;;25.30;;
57826;SDS011;43656;57.746;11.780;2022-12-18T01:58:39;63.20;;;22.80;;
57826;SDS011;43656;57.746;11.780;2022-12-18T02:01:11;61.08;;;22.38;;
57826;SDS011;43656;57.746;11.780;2022-12-18T02:03:36;45.25;;;18.63;;
57826;SDS011;43656;57.746;11.780;2022-12-18T02:06:21;42.28;;;15.93;;
57826;SDS011;43656;57.746;11.780;2022-12-18T02:17:19;50.22;;;18.55;;
57826;SDS011;43656;57.746;11.780;2022-12-18T02:28:21;51.25;;;18.20;;
57826;SDS011;43656;57.746;11.780;2022-12-18T02:30:52;43.20;;;17.65;;
57826;SDS011;43656;57.746;11.780;2022-12-18T02:33:21;48.95;;;18.38;;
57826;SDS011;43656;57.746;11.780;2022-12-18T02:35:52;59.42;;;20.45;;
57826;SDS011;43656;57.746;11.780;2022-12-18T02:38:20;50.22;;;17.77;;
57826;SDS011;43656;57.746;11.780;2022-12-18T02:40:47;52.20;;;18.15;;
57826;SDS011;43656;57.746;11.780;2022-12-18T02:43:15;53.15;;;18.40;;
57826;SDS011;43656;57.746;11.780;2022-12-18T02:45:52;53.67;;;18.25;;
57826;SDS011;43656;57.746;11.780;2022-12-18T02:48:39;54.05;;;18.00;;
57826;SDS011;43656;57.746;11.780;2022-12-18T02:53:58;53.47;;;18.60;;
57826;SDS011;43656;57.746;11.780;2022-12-18T02:56:50;56.92;;;19.85;;
57826;SDS011;43656;57.746;11.780;2022-12-18T02:59:20;59.25;;;18.48;;
57826;SDS011;43656;57.746;11.780;2022-12-18T03:02:17;59.00;;;18.98;;
57826;SDS011;43656;57.746;11.780;2022-12-18T03:04:48;49.40;;;17.40;;
57826;SDS011;43656;57.746;11.780;2022-12-18T03:07:23;55.17;;;19.20;;
57826;SDS011;43656;57.746;11.780;2022-12-18T03:10:00;49.00;;;18.33;;
57826;SDS011;43656;57.746;11.780;2022-12-18T03:12:30;44.10;;;16.63;;
57826;SDS011;43656;57.746;11.780;2022-12-18T03:17:29;43.95;;;16.92;;
57826;SDS011;43656;57.746;11.780;2022-12-18T03:19:58;42.35;;;16.42;;
57826;SDS011;43656;57.746;11.780;2022-12-18T03:22:28;46.75;;;16.75;;
57826;SDS011;43656;57.746;11.780;2022-12-18T03:24:57;34.25;;;12.93;;
57826;SDS011;43656;57.746;11.780;2022-12-18T03:27:30;44.03;;;17.05;;
57826;SDS011;43656;57.746;11.780;2022-12-18T03:30:10;37.58;;;15.85;;
57826;SDS011;43656;57.746;11.780;2022-12-18T03:33:21;43.63;;;16.05;;
57826;SDS011;43656;57.746;11.780;2022-12-18T03:35:41;47.22;;;17.48;;
57826;SDS011;43656;57.746;11.780;2022-12-18T03:38:08;45.58;;;16.77;;
57826;SDS011;43656;57.746;11.780;2022-12-18T03:40:39;45.38;;;15.85;;
57826;SDS011;43656;57.746;11.780;2022-12-18T03:43:35;46.70;;;17.15;;
57826;SDS011;43656;57.746;11.780;2022-12-18T03:48:44;42.08;;;16.80;;
57826;SDS011;43656;57.746;11.780;2022-12-18T03:51:18;49.88;;;16.48;;
57826;SDS011;43656;57.746;11.780;2022-12-18T03:54:02;40.03;;;15.48;;
57826;SDS011;43656;57.746;11.780;2022-12-18T03:56:32;47.78;;;17.08;;
57826;SDS011;43656;57.746;11.780;2022-12-18T03:59:02;46.10;;;16.77;;
57826;SDS011;43656;57.746;11.780;2022-12-18T04:01:37;48.67;;;17.20;;
57826;SDS011;43656;57.746;11.780;2022-12-18T04:04:06;41.70;;;15.68;;
57826;SDS011;43656;57.746;11.780;2022-12-18T04:06:33;34.90;;;15.23;;
57826;SDS011;43656;57.746;11.780;2022-12-18T04:08:59;40.13;;;15.38;;
57826;SDS011;43656;57.746;11.780;2022-12-18T04:11:25;45.28;;;15.15;;
57826;SDS011;43656;57.746;11.780;2022-12-18T04:13:53;43.10;;;16.00;;
57826;SDS011;43656;57.746;11.780;2022-12-18T04:16:21;43.28;;;14.45;;
57826;SDS011;43656;57.746;11.780;2022-12-18T04:18:46;37.85;;;14.90;;
57826;SDS011;43656;57.746;11.780;2022-12-18T04:21:12;42.78;;;14.95;;
57826;SDS011;43656;57.746;11.780;2022-12-18T04:23:37;42.05;;;14.57;;
57826;SDS011;43656;57.746;11.780;2022-12-18T04:26:03;42.60;;;14.95;;
57826;SDS011;43656;57.746;11.780;2022-12-18T04:28:28;47.65;;;15.15;;
57826;SDS011;43656;57.746;11.780;2022-12-18T04:30:54;40.22;;;13.55;;
57826;SDS011;43656;57.746;11.780;2022-12-18T04:33:19;39.13;;;13.80;;
57826;SDS011;43656;57.746;11.780;2022-12-18T04:35:45;33.35;;;12.85;;
57826;SDS011;43656;57.746;11.780;2022-12-18T04:38:10;38.08;;;13.45;;
57826;SDS011;43656;57.746;11.780;2022-12-18T04:40:36;43.55;;;13.82;;
57826;SDS011;43656;57.746;11.780;2022-12-18T04:43:02;33.58;;;12.57;;
57826;SDS011;43656;57.746;11.780;2022-12-18T04:45:29;33.35;;;12.07;;
57826;SDS011;43656;57.746;11.780;2022-12-18T04:47:57;30.40;;;11.68;;
57826;SDS011;43656;57.746;11.780;2022-12-18T04:50:23;35.78;;;12.52;;
57826;SDS011;43656;57.746;11.780;2022-12-18T04:52:48;31.35;;;11.60;;
57826;SDS011;43656;57.746;11.780;2022-12-18T04:55:13;31.15;;;10.70;;
57826;SDS011;43656;57.746;11.780;2022-12-18T04:57:39;28.02;;;10.60;;
57826;SDS011;43656;57.746;11.780;2022-12-18T05:00:05;29.30;;;10.20;;
57826;SDS011;43656;57.746;11.780;2022-12-18T05:02:31;30.60;;;11.32;;
57826;SDS011;43656;57.746;11.780;2022-12-18T05:04:57;28.70;;;9.65;;
57826;SDS011;43656;57.746;11.780;2022-12-18T05:07:22;29.85;;;10.02;;
57826;SDS011;43656;57.746;11.780;2022-12-18T05:09:47;26.30;;;8.93;;
57826;SDS011;43656;57.746;11.780;2022-12-18T05:12:13;26.65;;;9.15;;
57826;SDS011;43656;57.746;11.780;2022-12-18T05:14:38;26.20;;;8.70;;
57826;SDS011;43656;57.746;11.780;2022-12-18T05:17:04;20.10;;;7.32;;
57826;SDS011;43656;57.746;11.780;2022-12-18T05:19:29;30.13;;;8.23;;
57826;SDS011;43656;57.746;11.780;2022-12-18T05:21:55;20.02;;;7.60;;
57826;SDS011;43656;57.746;11.780;2022-12-18T05:24:20;23.88;;;8.27;;
57826;SDS011;43656;57.746;11.780;2022-12-18T05:26:46;21.10;;;7.50;;
57826;SDS011;43656;57.746;11.780;2022-12-18T05:29:11;25.33;;;8.05;;
57826;SDS011;43656;57.746;11.780;2022-12-18T05:31:37;31.05;;;8.63;;
57826;SDS011;43656;57.746;11.780;2022-12-18T05:34:03;21.35;;;7.97;;
57826;SDS011;43656;57.746;11.780;2022-12-18T05:36:29;21.63;;;7.65;;
57826;SDS011;43656;57.746;11.780;2022-12-18T05:38:54;26.45;;;7.32;;
57826;SDS011;43656;57.746;11.780;2022-12-18T05:41:19;25.15;;;8.10;;
57826;SDS011;43656;57.746;11.780;2022-12-18T05:43:45;21.15;;;7.88;;
57826;SDS011;43656;57.746;11.780;2022-12-18T05:46:15;22.25;;;7.57;;
57826;SDS011;43656;57.746;11.780;2022-12-18T05:48:43;22.75;;;7.65;;
57826;SDS011;43656;57.746;11.780;2022-12-18T05:51:11;20.40;;;6.82;;
57826;SDS011;43656;57.746;11.780;2022-12-18T05:53:40;26.38;;;7.25;;
57826;SDS011;43656;57.746;11.780;2022-12-18T05:56:08;19.10;;;6.85;;
57826;SDS011;43656;57.746;11.780;2022-12-18T05:58:36;21.77;;;6.00;;
57826;SDS011;43656;57.746;11.780;2022-12-18T06:01:09;20.15;;;6.25;;
57826;SDS011;43656;57.746;11.780;2022-12-18T06:03:37;23.13;;;6.40;;
57826;SDS011;43656;57.746;11.780;2022-12-18T06:06:03;18.02;;;6.15;;
57826;SDS011;43656;57.746;11.780;2022-12-18T06:08:29;17.58;;;6.35;;
57826;SDS011;43656;57.746;11.780;2022-12-18T06:10:54;19.60;;;6.53;;
57826;SDS011;43656;57.746;11.780;2022-12-18T06:13:20;15.75;;;5.97;;
57826;SDS011;43656;57.746;11.780;2022-12-18T06:15:45;20.08;;;5.75;;
57826;SDS011;43656;57.746;11.780;2022-12-18T06:18:11;19.20;;;5.70;;
57826;SDS011;43656;57.746;11.780;2022-12-18T06:20:36;20.02;;;6.13;;
57826;SDS011;43656;57.746;11.780;2022-12-18T06:23:04;18.67;;;5.20;;
57826;SDS011;43656;57.746;11.780;2022-12-18T06:25:31;16.80;;;5.43;;
57826;SDS011;43656;57.746;11.780;2022-12-18T06:27:58;17.35;;;5.38;;
57826;SDS011;43656;57.746;11.780;2022-12-18T06:30:23;16.30;;;5.47;;
57826;SDS011;43656;57.746;11.780;2022-12-18T06:32:49;15.00;;;5.65;;
57826;SDS011;43656;57.746;11.780;2022-12-18T06:35:15;18.25;;;5.68;;
57826;SDS011;43656;57.746;11.780;2022-12-18T06:37:40;18.25;;;5.95;;
57826;SDS011;43656;57.746;11.780;2022-12-18T06:40:06;18.23;;;5.95;;
57826;SDS011;43656;57.746;11.780;2022-12-18T06:42:32;15.60;;;5.60;;
57826;SDS011;43656;57.746;11.780;2022-12-18T06:44:57;18.77;;;6.45;;
57826;SDS011;43656;57.746;11.780;2022-12-18T06:47:23;19.25;;;5.32;;
57826;SDS011;43656;57.746;11.780;2022-12-18T06:49:48;19.90;;;5.50;;
57826;SDS011;43656;57.746;11.780;2022-12-18T06:52:14;20.20;;;6.10;;
57826;SDS011;43656;57.746;11.780;2022-12-18T06:54:41;18.40;;;5.10;;
57826;SDS011;43656;57.746;11.780;2022-12-18T06:57:06;21.92;;;5.70;;
57826;SDS011;43656;57.746;11.780;2022-12-18T06:59:32;21.48;;;5.90;;
57826;SDS011;43656;57.746;11.780;2022-12-18T07:01:57;22.02;;;5.43;;
57826;SDS011;43656;57.746;11.780;2022-12-18T07:04:27;19.83;;;6.03;;
57826;SDS011;43656;57.746;11.780;2022-12-18T07:06:56;20.15;;;5.53;;
57826;SDS011;43656;57.746;11.780;2022-12-18T07:09:22;17.73;;;5.03;;
57826;SDS011;43656;57.746;11.780;2022-12-18T07:11:47;21.55;;;5.45;;
57826;SDS011;43656;57.746;11.780;2022-12-18T07:14:13;16.95;;;5.30;;
57826;SDS011;43656;57.746;11.780;2022-12-18T07:16:38;15.68;;;4.40;;
57826;SDS011;43656;57.746;11.780;2022-12-18T07:19:04;16.10;;;4.93;;
57826;SDS011;43656;57.746;11.780;2022-12-18T07:21:29;13.90;;;4.47;;
57826;SDS011;43656;57.746;11.780;2022-12-18T07:23:54;14.57;;;5.25;;
57826;SDS011;43656;57.746;11.780;2022-12-18T07:26:20;14.63;;;5.18;;
57826;SDS011;43656;57.746;11.780;2022-12-18T07:28:47;17.20;;;4.78;;
57826;SDS011;43656;57.746;11.780;2022-12-18T07:31:19;17.02;;;4.95;;
57826;SDS011;43656;57.746;11.780;2022-12-18T07:33:46;21.30;;;5.00;;
57826;SDS011;43656;57.746;11.780;2022-12-18T07:36:12;25.60;;;4.80;;
57826;SDS011;43656;57.746;11.780;2022-12-18T07:38:38;16.25;;;4.70;;
57826;SDS011;43656;57.746;11.780;2022-12-18T07:41:05;18.58;;;4.60;;
57826;SDS011;43656;57.746;11.780;2022-12-18T07:43:33;24.70;;;4.68;;
57826;SDS011;43656;57.746;11.780;2022-12-18T07:45:59;18.88;;;4.28;;
57826;SDS011;43656;57.746;11.780;2022-12-18T07:48:24;22.35;;;4.65;;
57826;SDS011;43656;57.746;11.780;2022-12-18T07:50:50;14.75;;;4.28;;
57826;SDS011;43656;57.746;11.780;2022-12-18T07:53:15;17.35;;;4.18;;
57826;SDS011;43656;57.746;11.780;2022-12-18T07:55:41;18.33;;;4.88;;
57826;SDS011;43656;57.746;11.780;2022-12-18T07:58:07;15.85;;;4.10;;
57826;SDS011;43656;57.746;11.780;2022-12-18T08:00:33;10.60;;;3.70;;
57826;SDS011;43656;57.746;11.780;2022-12-18T08:02:58;17.08;;;4.22;;
57826;SDS011;43656;57.746;11.780;2022-12-18T08:05:24;21.55;;;4.47;;
57826;SDS011;43656;57.746;11.780;2022-12-18T08:07:49;15.68;;;4.13;;
57826;SDS011;43656;57.746;11.780;2022-12-18T08:10:15;23.08;;;4.65;;
57826;SDS011;43656;57.746;11.780;2022-12-18T08:12:41;18.17;;;4.45;;
57826;SDS011;43656;57.746;11.780;2022-12-18T08:15:06;16.80;;;4.07;;
57826;SDS011;43656;57.746;11.780;2022-12-18T08:17:32;17.90;;;4.38;;
57826;SDS011;43656;57.746;11.780;2022-12-18T08:19:57;17.45;;;4.45;;
57826;SDS011;43656;57.746;11.780;2022-12-18T08:22:23;23.08;;;4.95;;
57826;SDS011;43656;57.746;11.780;2022-12-18T08:24:48;18.17;;;4.90;;
57826;SDS011;43656;57.746;11.780;2022-12-18T08:27:14;18.73;;;5.30;;
57826;SDS011;43656;57.746;11.780;2022-12-18T08:29:39;21.13;;;4.80;;
57826;SDS011;43656;57.746;11.780;2022-12-18T08:32:05;13.77;;;4.50;;
57826;SDS011;43656;57.746;11.780;2022-12-18T08:34:30;16.58;;;3.90;;
57826;SDS011;43656;57.746;11.780;2022-12-18T08:36:56;15.82;;;4.03;;
57826;SDS011;43656;57.746;11.780;2022-12-18T08:39:21;16.48;;;3.92;;
57826;SDS011;43656;57.746;11.780;2022-12-18T08:41:47;17.88;;;4.20;;
57826;SDS011;43656;57.746;11.780;2022-12-18T08:44:32;15.07;;;4.38;;
57826;SDS011;43656;57.746;11.780;2022-12-18T08:47:04;13.20;;;4.00;;
57826;SDS011;43656;57.746;11.780;2022-12-18T08:49:31;17.65;;;4.90;;
57826;SDS011;43656;57.746;11.780;2022-12-18T08:51:56;19.90;;;5.13;;
57826;SDS011;43656;57.746;11.780;2022-12-18T08:54:23;21.02;;;5.22;;
57826;SDS011;43656;57.746;11.780;2022-12-18T08:56:49;23.55;;;5.32;;
57826;SDS011;43656;57.746;11.780;2022-12-18T08:59:15;21.33;;;5.57;;
57826;SDS011;43656;57.746;11.780;2022-12-18T09:01:41;24.05;;;5.22;;
57826;SDS011;43656;57.746;11.780;2022-12-18T09:04:07;15.63;;;4.93;;
57826;SDS011;43656;57.746;11.780;2022-12-18T09:06:34;20.85;;;5.75;;
57826;SDS011;43656;57.746;11.780;2022-12-18T09:09:00;23.60;;;6.18;;
57826;SDS011;43656;57.746;11.780;2022-12-18T09:11:27;23.13;;;5.60;;
57826;SDS011;43656;57.746;11.780;2022-12-18T09:13:53;20.00;;;5.43;;
57826;SDS011;43656;57.746;11.780;2022-12-18T09:16:20;23.58;;;6.38;;
57826;SDS011;43656;57.746;11.780;2022-12-18T09:18:46;18.90;;;5.57;;
57826;SDS011;43656;57.746;11.780;2022-12-18T09:21:17;21.80;;;5.88;;
57826;SDS011;43656;57.746;11.780;2022-12-18T09:23:48;21.25;;;5.95;;
57826;SDS011;43656;57.746;11.780;2022-12-18T09:26:17;23.60;;;6.18;;
57826;SDS011;43656;57.746;11.780;2022-12-18T09:28:42;19.60;;;5.68;;
57826;SDS011;43656;57.746;11.780;2022-12-18T09:31:08;22.75;;;6.78;;
57826;SDS011;43656;57.746;11.780;2022-12-18T09:33:34;17.73;;;5.75;;
57826;SDS011;43656;57.746;11.780;2022-12-18T09:36:01;19.67;;;5.07;;
57826;SDS011;43656;57.746;11.780;2022-12-18T09:38:28;16.20;;;5.03;;
57826;SDS011;43656;57.746;11.780;2022-12-18T09:40:56;14.38;;;4.78;;
57826;SDS011;43656;57.746;11.780;2022-12-18T09:43:36;21.90;;;6.38;;
57826;SDS011;43656;57.746;11.780;2022-12-18T09:46:06;21.70;;;6.50;;
57826;SDS011;43656;57.746;11.780;2022-12-18T09:48:35;25.40;;;9.30;;
57826;SDS011;43656;57.746;11.780;2022-12-18T09:51:13;16.50;;;5.10;;
57826;SDS011;43656;57.746;11.780;2022-12-18T09:53:44;20.70;;;5.93;;
57826;SDS011;43656;57.746;11.780;2022-12-18T09:56:35;21.70;;;6.00;;
57826;SDS011;43656;57.746;11.780;2022-12-18T09:59:05;17.40;;;5.65;;
57826;SDS011;43656;57.746;11.780;2022-12-18T10:01:31;21.52;;;5.55;;
57826;SDS011;43656;57.746;11.780;2022-12-18T10:03:57;23.90;;;5.90;;
57826;SDS011;43656;57.746;11.780;2022-12-18T10:07:01;17.45;;;5.22;;
57826;SDS011;43656;57.746;11.780;2022-12-18T10:10:02;22.92;;;5.40;;
57826;SDS011;43656;57.746;11.780;2022-12-18T10:17:54;20.70;;;5.45;;
57826;SDS011;43656;57.746;11.780;2022-12-18T10:28:16;14.40;;;5.00;;
57826;SDS011;43656;57.746;11.780;2022-12-18T10:30:43;19.20;;;5.18;;
57826;SDS011;43656;57.746;11.780;2022-12-18T10:33:16;22.90;;;4.90;;
57826;SDS011;43656;57.746;11.780;2022-12-18T10:35:44;22.10;;;5.10;;
57826;SDS011;43656;57.746;11.780;2022-12-18T10:41:01;15.43;;;4.70;;
57826;SDS011;43656;57.746;11.780;2022-12-18T10:43:35;18.42;;;4.65;;
57826;SDS011;43656;57.746;11.780;2022-12-18T10:46:04;17.10;;;4.68;;
57826;SDS011;43656;57.746;11.780;2022-12-18T10:48:33;15.65;;;4.10;;
57826;SDS011;43656;57.746;11.780;2022-12-18T10:50:59;17.10;;;4.60;;
57826;SDS011;43656;57.746;11.780;2022-12-18T10:53:26;14.85;;;4.57;;
57826;SDS011;43656;57.746;11.780;2022-12-18T10:56:19;15.93;;;3.95;;
57826;SDS011;43656;57.746;11.780;2022-12-18T10:58:45;16.17;;;4.13;;
57826;SDS011;43656;57.746;11.780;2022-12-18T11:01:26;14.25;;;4.47;;
57826;SDS011;43656;57.746;11.780;2022-12-18T11:06:19;14.77;;;4.50;;
57826;SDS011;43656;57.746;11.780;2022-12-18T11:11:23;15.65;;;5.00;;
57826;SDS011;43656;57.746;11.780;2022-12-18T11:16:43;23.35;;;6.22;;
57826;SDS011;43656;57.746;11.780;2022-12-18T11:21:39;20.80;;;6.88;;
57826;SDS011;43656;57.746;11.780;2022-12-18T11:24:07;18.63;;;6.78;;
57826;SDS011;43656;57.746;11.780;2022-12-18T11:27:05;23.17;;;5.25;;
57826;SDS011;43656;57.746;11.780;2022-12-18T11:29:40;17.90;;;4.80;;
57826;SDS011;43656;57.746;11.780;2022-12-18T11:34:38;21.15;;;5.45;;
57826;SDS011;43656;57.746;11.780;2022-12-18T11:37:07;17.30;;;5.65;;
57826;SDS011;43656;57.746;11.780;2022-12-18T11:39:51;23.60;;;4.97;;
57826;SDS011;43656;57.746;11.780;2022-12-18T11:42:30;24.42;;;4.95;;
57826;SDS011;43656;57.746;11.780;2022-12-18T11:45:18;19.08;;;5.20;;
57826;SDS011;43656;57.746;11.780;2022-12-18T11:50:26;21.15;;;5.90;;
57826;SDS011;43656;57.746;11.780;2022-12-18T11:52:56;26.17;;;5.78;;
57826;SDS011;43656;57.746;11.780;2022-12-18T12:03:38;29.17;;;5.22;;
57826;SDS011;43656;57.746;11.780;2022-12-18T12:38:48;26.15;;;6.28;;
57826;SDS011;43656;57.746;11.780;2022-12-18T12:41:18;23.33;;;6.07;;
57826;SDS011;43656;57.746;11.780;2022-12-18T12:44:05;25.27;;;5.80;;
57826;SDS011;43656;57.746;11.780;2022-12-18T12:46:35;27.95;;;6.75;;
57826;SDS011;43656;57.746;11.780;2022-12-18T12:49:03;32.67;;;5.75;;
57826;SDS011;43656;57.746;11.780;2022-12-18T12:51:41;22.50;;;5.32;;
57826;SDS011;43656;57.746;11.780;2022-12-18T12:54:23;21.65;;;5.60;;
57826;SDS011;43656;57.746;11.780;2022-12-18T12:59:21;20.85;;;5.13;;
57826;SDS011;43656;57.746;11.780;2022-12-18T13:02:15;19.60;;;4.85;;
57826;SDS011;43656;57.746;11.780;2022-12-18T13:18:28;19.08;;;5.18;;
57826;SDS011;43656;57.746;11.780;2022-12-18T13:23:26;20.73;;;5.03;;
57826;SDS011;43656;57.746;11.780;2022-12-18T13:26:39;19.27;;;4.55;;
57826;SDS011;43656;57.746;11.780;2022-12-18T13:28:50;16.20;;;4.57;;
57826;SDS011;43656;57.746;11.780;2022-12-18T13:34:04;20.10;;;4.65;;
57826;SDS011;43656;57.746;11.780;2022-12-18T13:36:40;17.00;;;4.63;;
57826;SDS011;43656;57.746;11.780;2022-12-18T13:41:34;17.70;;;4.57;;
57826;SDS011;43656;57.746;11.780;2022-12-18T13:46:50;20.73;;;4.28;;
57826;SDS011;43656;57.746;11.780;2022-12-18T13:49:30;22.77;;;4.72;;
57826;SDS011;43656;57.746;11.780;2022-12-18T13:52:00;15.40;;;4.30;;
57826;SDS011;43656;57.746;11.780;2022-12-18T13:56:55;14.40;;;4.68;;
57826;SDS011;43656;57.746;11.780;2022-12-18T13:59:33;19.73;;;4.82;;
57826;SDS011;43656;57.746;11.780;2022-12-18T14:02:04;15.20;;;3.67;;
57826;SDS011;43656;57.746;11.780;2022-12-18T14:04:41;20.98;;;4.50;;
57826;SDS011;43656;57.746;11.780;2022-12-18T14:07:20;18.83;;;4.50;;
57826;SDS011;43656;57.746;11.780;2022-12-18T14:09:57;15.27;;;4.18;;
57826;SDS011;43656;57.746;11.780;2022-12-18T14:12:27;12.68;;;3.90;;
57826;SDS011;43656;57.746;11.780;2022-12-18T14:20:55;12.35;;;3.88;;
57826;SDS011;43656;57.746;11.780;2022-12-18T14:26:19;14.95;;;4.30;;
57826;SDS011;43656;57.746;11.780;2022-12-18T14:28:45;20.25;;;4.22;;
57826;SDS011;43656;57.746;11.780;2022-12-18T14:31:21;13.82;;;4.13;;
57826;SDS011;43656;57.746;11.780;2022-12-18T14:33:48;18.80;;;4.82;;
57826;SDS011;43656;57.746;11.780;2022-12-18T14:36:18;14.23;;;4.03;;
57826;SDS011;43656;57.746;11.780;2022-12-18T14:38:53;16.52;;;4.05;;
57826;SDS011;43656;57.746;11.780;2022-12-18T14:41:23;23.03;;;4.87;;
57826;SDS011;43656;57.746;11.780;2022-12-18T14:43:50;16.73;;;4.57;;
57826;SDS011;43656;57.746;11.780;2022-12-18T14:49:01;26.25;;;7.03;;
57826;SDS011;43656;57.746;11.780;2022-12-18T14:51:30;21.58;;;5.97;;
57826;SDS011;43656;57.746;11.780;2022-12-18T14:53:59;23.52;;;5.60;;
57826;SDS011;43656;57.746;11.780;2022-12-18T14:56:32;17.23;;;4.82;;
57826;SDS011;43656;57.746;11.780;2022-12-18T14:59:12;21.30;;;5.47;;
57826;SDS011;43656;57.746;11.780;2022-12-18T15:01:50;20.20;;;5.65;;
57826;SDS011;43656;57.746;11.780;2022-12-18T15:04:34;27.48;;;6.55;;
57826;SDS011;43656;57.746;11.780;2022-12-18T15:07:23;24.63;;;6.40;;
57826;SDS011;43656;57.746;11.780;2022-12-18T15:12:42;26.10;;;7.03;;
57826;SDS011;43656;57.746;11.780;2022-12-18T15:17:59;29.90;;;7.70;;
57826;SDS011;43656;57.746;11.780;2022-12-18T15:20:25;27.95;;;7.55;;
57826;SDS011;43656;57.746;11.780;2022-12-18T15:22:51;26.75;;;7.90;;
57826;SDS011;43656;57.746;11.780;2022-12-18T15:27:55;26.83;;;10.90;;
57826;SDS011;43656;57.746;11.780;2022-12-18T15:30:22;46.70;;;16.42;;
57826;SDS011;43656;57.746;11.780;2022-12-18T15:32:50;42.42;;;14.77;;
57826;SDS011;43656;57.746;11.780;2022-12-18T15:35:18;41.63;;;16.25;;
57826;SDS011;43656;57.746;11.780;2022-12-18T15:37:46;39.05;;;13.43;;
57826;SDS011;43656;57.746;11.780;2022-12-18T15:40:13;42.85;;;15.20;;
57826;SDS011;43656;57.746;11.780;2022-12-18T15:42:48;40.22;;;14.55;;
57826;SDS011;43656;57.746;11.780;2022-12-18T15:45:32;45.78;;;14.48;;
57826;SDS011;43656;57.746;11.780;2022-12-18T15:47:58;56.80;;;15.95;;
57826;SDS011;43656;57.746;11.780;2022-12-18T15:50:24;51.53;;;16.08;;
57826;SDS011;43656;57.746;11.780;2022-12-18T15:52:51;51.38;;;17.52;;
57826;SDS011;43656;57.746;11.780;2022-12-18T15:55:19;59.47;;;18.73;;
57826;SDS011;43656;57.746;11.780;2022-12-18T15:58:05;57.08;;;18.60;;
57826;SDS011;43656;57.746;11.780;2022-12-18T16:00:35;57.88;;;18.27;;
57826;SDS011;43656;57.746;11.780;2022-12-18T16:03:03;64.50;;;21.48;;
57826;SDS011;43656;57.746;11.780;2022-12-18T16:05:29;66.13;;;20.73;;
57826;SDS011;43656;57.746;11.780;2022-12-18T16:07:55;71.75;;;23.40;;
57826;SDS011;43656;57.746;11.780;2022-12-18T16:10:21;72.28;;;26.42;;
57826;SDS011;43656;57.746;11.780;2022-12-18T16:12:47;88.32;;;28.55;;
57826;SDS011;43656;57.746;11.780;2022-12-18T16:15:13;98.53;;;30.63;;
57826;SDS011;43656;57.746;11.780;2022-12-18T16:17:42;95.90;;;31.27;;
57826;SDS011;43656;57.746;11.780;2022-12-18T16:20:12;112.13;;;31.75;;
57826;SDS011;43656;57.746;11.780;2022-12-18T16:22:40;100.90;;;31.10;;
57826;SDS011;43656;57.746;11.780;2022-12-18T16:25:09;112.38;;;32.20;;
57826;SDS011;43656;57.746;11.780;2022-12-18T16:28:00;103.43;;;30.15;;
57826;SDS011;43656;57.746;11.780;2022-12-18T16:30:26;99.63;;;31.33;;
57826;SDS011;43656;57.746;11.780;2022-12-18T16:32:59;111.70;;;33.47;;
57826;SDS011;43656;57.746;11.780;2022-12-18T16:35:25;109.88;;;32.47;;
57826;SDS011;43656;57.746;11.780;2022-12-18T16:37:51;98.50;;;30.83;;
57826;SDS011;43656;57.746;11.780;2022-12-18T16:40:17;111.63;;;32.92;;
57826;SDS011;43656;57.746;11.780;2022-12-18T16:42:43;101.18;;;32.42;;
57826;SDS011;43656;57.746;11.780;2022-12-18T16:45:11;112.70;;;33.35;;
57826;SDS011;43656;57.746;11.780;2022-12-18T16:47:39;113.60;;;32.40;;
57826;SDS011;43656;57.746;11.780;2022-12-18T16:50:06;116.03;;;32.53;;
57826;SDS011;43656;57.746;11.780;2022-12-18T16:52:32;95.38;;;32.35;;
57826;SDS011;43656;57.746;11.780;2022-12-18T16:54:58;99.60;;;30.63;;
57826;SDS011;43656;57.746;11.780;2022-12-18T16:57:23;104.15;;;31.60;;